createdAt,value
2023-11-30T00:00:33.332Z,55.87
2023-11-30T00:03:05.554Z,55.83
2023-11-30T00:05:33.599Z,55.88
2023-11-30T00:08:01.568Z,56.01
2023-11-30T00:10:29.579Z,55.96
2023-11-30T00:12:57.773Z,55.92
2023-11-30T00:15:25.841Z,55.98
2023-11-30T00:17:53.921Z,56.12
2023-11-30T00:20:23.422Z,56.21
2023-11-30T00:22:51.415Z,56.06
2023-11-30T00:25:19.444Z,56.05
2023-11-30T00:27:47.397Z,56.35
2023-11-30T00:30:16.259Z,56.10
2023-11-30T00:32:44.270Z,56.07
2023-11-30T00:35:12.269Z,55.92
2023-11-30T00:37:41.619Z,56.03
2023-11-30T00:40:11.128Z,55.89
2023-11-30T00:42:39.181Z,55.99
2023-11-30T00:45:08.669Z,55.89
2023-11-30T00:47:36.767Z,55.96
2023-11-30T00:50:05.543Z,56.00
2023-11-30T00:52:33.560Z,55.82
2023-11-30T00:55:03.061Z,55.81
2023-11-30T00:57:31.142Z,55.74
2023-11-30T01:00:01.580Z,55.89
2023-11-30T01:02:29.736Z,55.76
2023-11-30T01:04:57.778Z,55.97
2023-11-30T01:07:25.864Z,55.83
2023-11-30T01:09:53.835Z,55.71
2023-11-30T01:12:23.313Z,55.74
2023-11-30T01:14:51.328Z,55.76
2023-11-30T01:17:19.375Z,55.73
2023-11-30T01:19:47.406Z,55.69
2023-11-30T01:22:15.364Z,55.75
2023-11-30T01:24:43.466Z,55.63
2023-11-30T01:27:11.521Z,55.64
2023-11-30T01:29:40.921Z,55.56
2023-11-30T01:32:08.920Z,55.45
2023-11-30T01:34:36.903Z,55.40
2023-11-30T01:37:04.907Z,55.23
2023-11-30T01:39:32.981Z,55.09
2023-11-30T01:42:02.750Z,54.96
2023-11-30T01:44:31.913Z,54.91
2023-11-30T01:47:01.736Z,54.70
2023-11-30T01:49:29.779Z,54.71
2023-11-30T01:51:57.826Z,54.41
2023-11-30T01:54:25.832Z,54.11
2023-11-30T01:56:53.872Z,53.91
2023-11-30T01:59:21.904Z,54.03
2023-11-30T02:01:50.017Z,53.80
2023-11-30T02:04:19.478Z,53.62
2023-11-30T02:06:48.210Z,53.53
2023-11-30T02:09:16.359Z,53.41
2023-11-30T02:11:44.427Z,53.34
2023-11-30T02:14:12.376Z,53.39
2023-11-30T02:16:40.599Z,53.04
2023-11-30T02:19:08.616Z,53.28
2023-11-30T02:21:37.950Z,53.17
2023-11-30T02:24:08.406Z,53.23
2023-11-30T02:26:36.613Z,53.22
2023-11-30T02:29:04.689Z,53.19
2023-11-30T02:31:33.549Z,53.33
2023-11-30T02:34:01.752Z,53.41
2023-11-30T02:36:29.918Z,53.19
2023-11-30T02:38:58.003Z,53.11
2023-11-30T02:41:27.425Z,52.92
2023-11-30T02:43:55.416Z,52.86
2023-11-30T02:46:23.436Z,52.89
2023-11-30T02:48:51.532Z,52.94
2023-11-30T02:51:19.686Z,52.79
2023-11-30T02:53:47.718Z,52.64
2023-11-30T02:56:15.719Z,52.56
2023-11-30T02:58:45.052Z,52.40
2023-11-30T03:01:13.149Z,52.34
2023-11-30T03:03:41.250Z,52.42
2023-11-30T03:06:12.780Z,52.26
2023-11-30T03:08:40.822Z,52.29
2023-11-30T03:11:08.868Z,52.18
2023-11-30T03:13:36.956Z,52.12
2023-11-30T03:16:07.143Z,52.00
2023-11-30T03:18:35.230Z,52.03
2023-11-30T03:21:03.275Z,52.19
2023-11-30T03:23:31.264Z,52.20
2023-11-30T03:25:59.241Z,52.10
2023-11-30T03:28:29.119Z,52.24
2023-11-30T03:30:57.135Z,52.14
2023-11-30T03:33:26.543Z,51.98
2023-11-30T03:35:55.291Z,52.02
2023-11-30T03:38:23.258Z,52.09
2023-11-30T03:40:51.397Z,52.15
2023-11-30T03:43:19.482Z,52.27
2023-11-30T03:45:47.561Z,52.03
2023-11-30T03:48:15.661Z,52.20
2023-11-30T03:50:45.302Z,52.22
2023-11-30T03:53:13.285Z,52.20
2023-11-30T03:55:41.481Z,52.07
2023-11-30T03:58:09.454Z,52.17
2023-11-30T04:00:38.834Z,52.22
2023-11-30T04:03:06.919Z,52.41
2023-11-30T04:05:34.872Z,52.58
2023-11-30T04:08:04.521Z,52.52
2023-11-30T04:10:32.501Z,52.74
2023-11-30T04:13:00.707Z,52.76
2023-11-30T04:15:28.777Z,52.79
2023-11-30T04:17:57.669Z,52.83
2023-11-30T04:20:25.667Z,53.00
2023-11-30T04:22:53.687Z,53.04
2023-11-30T04:25:23.653Z,53.06
2023-11-30T04:27:51.650Z,53.20
2023-11-30T04:30:19.872Z,53.13
2023-11-30T04:32:47.922Z,53.02
2023-11-30T04:35:16.216Z,53.11
2023-11-30T04:37:44.194Z,53.06
2023-11-30T04:40:13.849Z,53.06
2023-11-30T04:42:43.239Z,52.98
2023-11-30T04:45:11.475Z,52.93
2023-11-30T04:47:40.184Z,52.89
2023-11-30T04:50:09.452Z,53.03
2023-11-30T04:52:37.434Z,52.92
2023-11-30T04:55:06.090Z,52.78
2023-11-30T04:57:34.114Z,52.82
2023-11-30T05:00:06.584Z,52.97
2023-11-30T05:02:35.346Z,52.89
2023-11-30T05:05:04.056Z,53.05
2023-11-30T05:07:32.198Z,52.94
2023-11-30T05:10:00.247Z,52.92
2023-11-30T05:12:28.258Z,52.95
2023-11-30T05:14:56.599Z,53.06
2023-11-30T05:17:26.045Z,53.08
2023-11-30T05:19:54.081Z,53.26
2023-11-30T05:22:22.057Z,53.19
2023-11-30T05:24:51.380Z,53.17
2023-11-30T05:27:19.378Z,53.03
2023-11-30T05:29:47.396Z,52.98
2023-11-30T05:32:15.616Z,52.89
2023-11-30T05:34:45.006Z,52.91
2023-11-30T05:37:13.022Z,52.74
2023-11-30T05:39:42.235Z,52.62
2023-11-30T05:42:11.307Z,52.66
2023-11-30T05:44:39.358Z,52.67
2023-11-30T05:47:07.829Z,52.66
2023-11-30T05:49:36.107Z,52.72
2023-11-30T05:52:05.708Z,52.79
2023-11-30T05:54:34.069Z,52.87
2023-11-30T05:57:02.223Z,52.99
2023-11-30T05:59:30.270Z,53.12
2023-11-30T06:01:58.631Z,53.15
2023-11-30T06:04:26.775Z,52.88
2023-11-30T06:06:54.855Z,52.75
2023-11-30T06:09:24.274Z,52.69
2023-11-30T06:11:53.651Z,52.29
2023-11-30T06:14:21.728Z,51.83
2023-11-30T06:16:49.729Z,51.54
2023-11-30T06:19:17.736Z,51.22
2023-11-30T06:21:45.959Z,50.85
2023-11-30T06:24:14.078Z,50.56
2023-11-30T06:26:44.252Z,50.45
2023-11-30T06:29:12.413Z,50.11
2023-11-30T06:31:40.577Z,50.02
2023-11-30T06:34:08.586Z,50.00
2023-11-30T06:36:37.017Z,49.93
2023-11-30T06:39:06.155Z,49.77
2023-11-30T06:41:34.252Z,49.77
2023-11-30T06:44:03.981Z,49.51
2023-11-30T06:46:31.982Z,49.60
2023-11-30T06:48:59.886Z,49.43
2023-11-30T06:51:27.965Z,49.47
2023-11-30T06:53:54.960Z,49.45
2023-11-30T06:56:22.978Z,49.52
2023-11-30T06:58:51.083Z,49.34
2023-11-30T07:01:20.427Z,49.29
2023-11-30T07:03:48.451Z,49.54
2023-11-30T07:06:16.662Z,49.52
2023-11-30T07:08:44.821Z,49.37
2023-11-30T07:11:15.719Z,49.19
2023-11-30T07:13:43.865Z,49.31
2023-11-30T07:16:12.825Z,49.48
2023-11-30T07:18:42.791Z,49.53
2023-11-30T07:21:14.653Z,49.51
2023-11-30T07:23:43.377Z,49.52
2023-11-30T07:26:14.583Z,49.74
2023-11-30T07:28:42.759Z,49.61
2023-11-30T07:31:10.810Z,49.59
2023-11-30T07:33:39.788Z,49.66
2023-11-30T07:36:13.520Z,49.51
2023-11-30T07:38:42.302Z,49.73
2023-11-30T07:41:10.437Z,49.64
2023-11-30T07:43:38.449Z,49.68
2023-11-30T07:46:07.115Z,49.68
2023-11-30T07:48:35.137Z,49.90
2023-11-30T07:51:03.165Z,50.01
2023-11-30T07:53:32.551Z,50.04
2023-11-30T07:56:00.783Z,50.13
2023-11-30T07:58:28.752Z,50.25
2023-11-30T08:00:58.090Z,50.34
2023-11-30T08:03:26.370Z,50.48
2023-11-30T08:05:54.922Z,50.59
2023-11-30T08:08:22.967Z,50.36
2023-11-30T08:10:52.605Z,50.61
2023-11-30T08:13:21.171Z,50.79
2023-11-30T08:15:49.745Z,50.69
2023-11-30T08:18:19.717Z,50.88
2023-11-30T08:20:49.380Z,50.76
2023-11-30T08:23:18.039Z,50.93
2023-11-30T08:25:46.027Z,50.90
2023-11-30T08:28:17.980Z,50.70
2023-11-30T08:30:47.078Z,51.19
2023-11-30T08:33:15.397Z,50.93
2023-11-30T08:35:43.619Z,50.78
2023-11-30T08:38:11.639Z,50.90
2023-11-30T08:40:39.670Z,50.66
2023-11-30T08:43:07.804Z,50.63
2023-11-30T08:45:37.798Z,50.56
2023-11-30T08:48:06.695Z,50.52
2023-11-30T08:50:34.879Z,50.68
2023-11-30T08:53:03.892Z,50.51
2023-11-30T08:55:31.880Z,50.41
2023-11-30T08:57:59.924Z,50.47
2023-11-30T09:00:27.949Z,50.29
2023-11-30T09:02:57.633Z,50.46
2023-11-30T09:05:25.899Z,50.25
2023-11-30T09:07:53.820Z,50.01
2023-11-30T09:10:21.880Z,50.07
2023-11-30T09:12:50.015Z,50.14
2023-11-30T09:15:19.467Z,50.20
2023-11-30T09:17:49.484Z,50.14
2023-11-30T09:20:21.356Z,50.22
2023-11-30T09:22:49.751Z,50.18
2023-11-30T09:25:18.056Z,50.34
2023-11-30T09:27:47.658Z,50.12
2023-11-30T09:30:16.763Z,50.13
2023-11-30T09:32:44.972Z,50.14
2023-11-30T09:35:14.467Z,49.82
2023-11-30T09:37:43.879Z,49.95
2023-11-30T09:40:14.783Z,49.89
2023-11-30T09:42:42.837Z,49.81
2023-11-30T09:45:11.564Z,49.62
2023-11-30T09:47:39.745Z,49.54
2023-11-30T09:50:08.822Z,49.58
2023-11-30T09:52:38.586Z,49.55
2023-11-30T09:55:12.418Z,49.71
2023-11-30T09:57:40.897Z,49.85
2023-11-30T10:00:11.632Z,49.97
2023-11-30T10:02:39.857Z,50.03
2023-11-30T10:05:10.563Z,50.32
2023-11-30T10:07:40.591Z,50.40
2023-11-30T10:10:10.631Z,50.49
2023-11-30T10:12:38.859Z,50.54
2023-11-30T10:15:07.856Z,50.59
2023-11-30T10:17:37.794Z,50.53
2023-11-30T10:20:06.888Z,50.27
2023-11-30T10:22:35.039Z,50.27
2023-11-30T10:25:03.105Z,50.44
2023-11-30T10:27:32.506Z,50.37
2023-11-30T10:30:02.392Z,50.60
2023-11-30T10:32:31.930Z,50.20
2023-11-30T10:35:00.064Z,49.87
2023-11-30T10:37:28.730Z,49.98
2023-11-30T10:40:00.867Z,49.96
2023-11-30T10:42:29.071Z,50.06
2023-11-30T10:44:59.302Z,50.03
2023-11-30T10:47:27.306Z,50.37
2023-11-30T10:49:55.464Z,50.29
2023-11-30T10:52:24.218Z,50.42
2023-11-30T10:54:55.694Z,50.44
2023-11-30T10:57:23.794Z,50.64
2023-11-30T10:59:59.885Z,50.74
2023-11-30T11:02:37.327Z,50.40
2023-11-30T11:05:10.286Z,50.42
2023-11-30T11:07:38.478Z,50.35
2023-11-30T11:10:08.305Z,50.31
2023-11-30T11:12:38.973Z,50.39
2023-11-30T11:15:14.327Z,50.55
2023-11-30T11:17:47.916Z,50.42
2023-11-30T11:20:26.059Z,50.23
2023-11-30T11:22:55.889Z,50.31
2023-11-30T11:25:24.004Z,50.20
2023-11-30T11:27:52.687Z,50.05
2023-11-30T11:30:27.560Z,49.93
2023-11-30T11:32:58.315Z,50.06
2023-11-30T11:35:27.779Z,49.79
2023-11-30T11:37:58.116Z,50.04
2023-11-30T11:40:26.643Z,49.97
2023-11-30T11:42:54.756Z,49.55
2023-11-30T11:45:24.440Z,49.51
2023-11-30T11:47:52.637Z,49.53
2023-11-30T11:50:20.683Z,49.63
2023-11-30T11:52:49.922Z,49.26
2023-11-30T11:55:18.034Z,49.10
2023-11-30T11:57:46.553Z,48.96
2023-11-30T12:00:18.016Z,48.92
2023-11-30T12:02:47.805Z,49.07
2023-11-30T12:05:17.446Z,48.83
2023-11-30T12:07:49.571Z,48.73
2023-11-30T12:10:30.518Z,48.85
2023-11-30T12:12:59.259Z,48.75
2023-11-30T12:15:27.657Z,48.63
2023-11-30T12:17:57.298Z,48.86
2023-11-30T12:20:25.321Z,49.03
2023-11-30T12:22:53.350Z,48.87
2023-11-30T12:25:21.406Z,49.03
2023-11-30T12:27:49.473Z,49.17
2023-11-30T12:30:17.608Z,49.48
2023-11-30T12:32:45.701Z,49.23
2023-11-30T12:35:16.616Z,48.87
2023-11-30T12:37:44.746Z,48.90
2023-11-30T12:40:14.912Z,49.05
2023-11-30T12:42:44.181Z,49.13
2023-11-30T12:45:12.501Z,49.13
2023-11-30T12:47:41.629Z,49.25
2023-11-30T12:50:11.334Z,49.12
2023-11-30T12:52:40.773Z,49.33
2023-11-30T12:55:09.921Z,49.42
2023-11-30T12:57:40.472Z,49.48
2023-11-30T13:00:10.872Z,49.52
2023-11-30T13:02:39.141Z,49.60
2023-11-30T13:05:07.344Z,49.44
2023-11-30T13:07:35.403Z,49.68
2023-11-30T13:10:05.733Z,49.35
2023-11-30T13:12:33.833Z,49.43
2023-11-30T13:15:01.909Z,49.41
2023-11-30T13:17:30.069Z,49.57
2023-11-30T13:19:58.191Z,49.68
2023-11-30T13:22:26.244Z,49.86
2023-11-30T13:24:54.431Z,49.93
2023-11-30T13:27:23.864Z,49.88
2023-11-30T13:29:51.912Z,49.87
2023-11-30T13:32:20.148Z,49.73
2023-11-30T13:34:48.247Z,49.88
2023-11-30T13:37:16.403Z,50.23
2023-11-30T13:39:44.904Z,50.08
2023-11-30T13:42:12.901Z,49.97
2023-11-30T13:44:42.349Z,50.03
2023-11-30T13:47:11.102Z,50.10
2023-11-30T13:49:39.526Z,50.05
2023-11-30T13:52:08.594Z,50.05
2023-11-30T13:54:38.401Z,50.01
2023-11-30T13:57:09.617Z,49.84
2023-11-30T13:59:37.635Z,49.88
2023-11-30T14:02:08.145Z,49.80
2023-11-30T14:04:36.279Z,49.63
2023-11-30T14:07:05.174Z,49.78
2023-11-30T14:09:33.426Z,49.58
2023-11-30T14:12:01.667Z,49.18
2023-11-30T14:14:29.661Z,49.10
2023-11-30T14:16:57.754Z,48.78
2023-11-30T14:19:27.118Z,48.95
2023-11-30T14:21:55.398Z,49.07
2023-11-30T14:24:23.476Z,49.21
2023-11-30T14:26:51.607Z,49.03
2023-11-30T14:29:19.706Z,48.74
2023-11-30T14:31:48.684Z,49.07
2023-11-30T14:34:16.802Z,49.11
2023-11-30T14:36:46.267Z,49.05
2023-11-30T14:39:14.311Z,49.24
2023-11-30T14:41:42.406Z,49.40
2023-11-30T14:44:11.433Z,49.48
2023-11-30T14:46:39.869Z,49.60
2023-11-30T14:49:08.414Z,49.62
2023-11-30T14:51:36.694Z,49.82
2023-11-30T14:54:07.313Z,49.97
2023-11-30T14:56:35.393Z,50.25
2023-11-30T14:59:05.088Z,50.15
2023-11-30T15:01:33.246Z,50.29
2023-11-30T15:04:01.801Z,50.24
2023-11-30T15:06:29.928Z,50.40
2023-11-30T15:08:57.941Z,50.32
2023-11-30T15:11:27.463Z,50.22
2023-11-30T15:13:55.523Z,50.28
2023-11-30T15:16:23.642Z,50.24
2023-11-30T15:18:52.051Z,50.04
2023-11-30T15:21:20.282Z,49.50
2023-11-30T15:23:48.457Z,49.50
2023-11-30T15:26:16.639Z,49.02
2023-11-30T15:28:46.132Z,48.52
2023-11-30T15:31:14.210Z,48.38
2023-11-30T15:33:42.346Z,48.43
2023-11-30T15:36:11.153Z,48.34
2023-11-30T15:38:39.201Z,48.26
2023-11-30T15:41:07.421Z,48.26
2023-11-30T15:43:35.701Z,48.16
2023-11-30T15:46:06.663Z,48.02
2023-11-30T15:48:34.884Z,47.90
2023-11-30T15:51:03.866Z,48.01
2023-11-30T15:53:31.941Z,48.13
2023-11-30T15:55:59.945Z,48.22
2023-11-30T15:58:29.126Z,48.47
2023-11-30T16:01:00.071Z,48.45
2023-11-30T16:03:29.713Z,48.50
2023-11-30T16:05:57.876Z,48.43
2023-11-30T16:08:25.948Z,48.56
2023-11-30T16:10:53.988Z,48.69
2023-11-30T16:13:23.189Z,48.80
2023-11-30T16:15:52.313Z,48.89
2023-11-30T16:18:20.638Z,48.92
2023-11-30T16:20:50.081Z,49.01
2023-11-30T16:23:18.153Z,49.19
2023-11-30T16:25:46.262Z,49.26
2023-11-30T16:28:14.359Z,49.42
2023-11-30T16:30:42.517Z,49.55
2023-11-30T16:33:10.680Z,49.57
2023-11-30T16:35:38.924Z,49.86
2023-11-30T16:38:08.343Z,49.89
2023-11-30T16:40:36.486Z,49.92
2023-11-30T16:43:05.116Z,49.95
2023-11-30T16:45:33.116Z,49.96
2023-11-30T16:48:01.175Z,50.09
2023-11-30T16:50:29.250Z,49.96
2023-11-30T16:52:59.002Z,50.07
2023-11-30T16:55:28.457Z,50.21
2023-11-30T16:57:56.930Z,49.97
2023-11-30T17:00:25.506Z,50.02
2023-11-30T17:02:54.850Z,49.76
2023-11-30T17:05:22.937Z,49.88
2023-11-30T17:07:51.164Z,49.75
2023-11-30T17:10:19.161Z,49.71
2023-11-30T17:12:48.684Z,49.77
2023-11-30T17:15:18.406Z,49.75
2023-11-30T17:17:50.516Z,49.80
2023-11-30T17:20:18.942Z,49.78
2023-11-30T17:22:50.692Z,49.77
2023-11-30T17:25:18.765Z,49.81
2023-11-30T17:27:48.653Z,49.87
2023-11-30T17:30:17.359Z,49.76
2023-11-30T17:32:45.470Z,49.98
2023-11-30T17:35:14.075Z,49.99
2023-11-30T17:37:42.578Z,50.03
2023-11-30T17:40:12.049Z,50.01
2023-11-30T17:42:40.172Z,50.12
2023-11-30T17:45:11.203Z,50.00
2023-11-30T17:47:40.221Z,50.11
2023-11-30T17:50:09.342Z,49.89
2023-11-30T17:52:37.323Z,49.85
2023-11-30T17:55:05.685Z,49.82
2023-11-30T17:57:34.288Z,49.92
2023-11-30T18:00:02.362Z,49.98
2023-11-30T18:02:31.826Z,50.07
2023-11-30T18:04:59.857Z,50.14
2023-11-30T18:07:27.988Z,50.19
2023-11-30T18:09:56.153Z,50.13
2023-11-30T18:12:25.673Z,49.86
2023-11-30T18:14:53.715Z,49.89
2023-11-30T18:17:21.771Z,49.78
2023-11-30T18:19:51.226Z,49.64
2023-11-30T18:22:19.374Z,49.81
2023-11-30T18:24:47.432Z,49.93
2023-11-30T18:27:15.469Z,50.12
2023-11-30T18:29:43.626Z,50.04
2023-11-30T18:32:12.983Z,50.06
2023-11-30T18:34:41.388Z,50.19
2023-11-30T18:37:10.991Z,50.22
2023-11-30T18:39:39.090Z,50.31
2023-11-30T18:42:07.214Z,50.22
2023-11-30T18:44:35.213Z,50.42
2023-11-30T18:47:04.151Z,50.42
2023-11-30T18:49:33.900Z,50.53
2023-11-30T18:52:01.982Z,50.63
2023-11-30T18:54:31.675Z,50.46
2023-11-30T18:56:59.765Z,50.71
2023-11-30T18:59:28.859Z,50.79
2023-11-30T19:01:57.215Z,50.76
2023-11-30T19:04:25.579Z,50.72
2023-11-30T19:06:53.670Z,50.62
2023-11-30T19:09:22.482Z,50.78
2023-11-30T19:11:52.438Z,50.68
2023-11-30T19:14:21.125Z,50.70
2023-11-30T19:16:49.524Z,50.57
2023-11-30T19:19:17.601Z,50.60
2023-11-30T19:21:45.795Z,50.43
2023-11-30T19:24:16.235Z,50.63
2023-11-30T19:26:45.043Z,50.55
2023-11-30T19:29:15.301Z,50.45
2023-11-30T19:31:43.469Z,50.61
2023-11-30T19:34:13.136Z,50.53
2023-11-30T19:36:41.549Z,50.46
2023-11-30T19:39:09.734Z,50.62
2023-11-30T19:41:37.782Z,50.47
2023-11-30T19:44:06.083Z,50.55
2023-11-30T19:46:35.612Z,50.55
2023-11-30T19:49:03.798Z,50.62
2023-11-30T19:51:32.974Z,50.58
2023-11-30T19:54:01.045Z,50.53
2023-11-30T19:56:29.864Z,50.59
2023-11-30T19:58:58.012Z,50.66
2023-11-30T20:01:26.158Z,50.51
2023-11-30T20:03:55.707Z,50.70
2023-11-30T20:06:23.893Z,50.84
2023-11-30T20:08:51.989Z,50.87
2023-11-30T20:11:22.643Z,50.91
2023-11-30T20:13:51.029Z,50.92
2023-11-30T20:16:19.123Z,50.93
2023-11-30T20:18:47.279Z,51.09
2023-11-30T20:21:22.066Z,51.06
2023-11-30T20:23:50.395Z,51.21
2023-11-30T20:26:19.579Z,51.23
2023-11-30T20:28:48.100Z,51.17
2023-11-30T20:31:16.587Z,51.07
2023-11-30T20:33:47.107Z,51.16
2023-11-30T20:36:19.383Z,51.28
2023-11-30T20:38:48.970Z,51.33
2023-11-30T20:41:18.631Z,51.42
2023-11-30T20:43:48.963Z,51.36
2023-11-30T20:46:19.460Z,51.36
2023-11-30T20:48:49.652Z,51.56
2023-11-30T20:51:21.002Z,51.46
2023-11-30T20:53:52.943Z,51.64
2023-11-30T20:56:25.893Z,51.55
2023-11-30T20:58:53.971Z,51.69
2023-11-30T21:01:23.942Z,51.68
2023-11-30T21:03:52.473Z,51.83
2023-11-30T21:06:20.878Z,51.91
2023-11-30T21:08:51.784Z,51.72
2023-11-30T21:11:19.965Z,51.90
2023-11-30T21:13:49.323Z,51.90
2023-11-30T21:16:20.422Z,51.94
2023-11-30T21:18:49.082Z,52.21
2023-11-30T21:21:17.995Z,52.08
2023-11-30T21:23:47.408Z,52.17
2023-11-30T21:26:16.992Z,52.19
2023-11-30T21:28:44.974Z,52.37
2023-11-30T21:31:13.429Z,52.39
2023-11-30T21:33:41.616Z,52.61
2023-11-30T21:36:13.806Z,52.47
2023-11-30T21:38:41.832Z,52.49
2023-11-30T21:41:09.877Z,52.64
2023-11-30T21:43:39.448Z,52.51
2023-11-30T21:46:08.167Z,52.35
2023-11-30T21:48:36.515Z,52.46
2023-11-30T21:51:04.772Z,52.28
2023-11-30T21:53:35.957Z,52.33
2023-11-30T21:56:04.040Z,52.28
2023-11-30T21:58:33.830Z,52.13
2023-11-30T22:01:05.973Z,52.26
2023-11-30T22:03:34.614Z,52.07
2023-11-30T22:06:02.835Z,52.17
2023-11-30T22:08:30.919Z,52.14
2023-11-30T22:10:58.973Z,52.20
2023-11-30T22:13:27.056Z,52.13
2023-11-30T22:16:00.065Z,51.95
2023-11-30T22:18:33.727Z,51.95
2023-11-30T22:21:04.126Z,52.25
2023-11-30T22:23:33.666Z,51.96
2023-11-30T22:26:04.419Z,51.97
2023-11-30T22:28:32.867Z,52.06
2023-11-30T22:31:01.135Z,52.16
2023-11-30T22:33:29.372Z,52.03
2023-11-30T22:35:58.896Z,51.98
2023-11-30T22:38:30.961Z,52.05
2023-11-30T22:41:00.838Z,52.09
2023-11-30T22:43:28.964Z,52.07
2023-11-30T22:45:57.021Z,52.24
2023-11-30T22:48:26.133Z,52.30
2023-11-30T22:50:54.329Z,52.25
2023-11-30T22:53:23.982Z,52.38
2023-11-30T22:55:52.171Z,52.18
2023-11-30T22:58:20.484Z,52.11
2023-11-30T23:00:48.981Z,52.17
2023-11-30T23:03:17.282Z,52.31
2023-11-30T23:05:45.729Z,52.30
2023-11-30T23:08:13.833Z,52.41
2023-11-30T23:10:43.314Z,52.33
2023-11-30T23:13:12.811Z,52.63
2023-11-30T23:15:40.965Z,52.34
2023-11-30T23:18:11.249Z,52.49
2023-11-30T23:20:39.646Z,52.40
2023-11-30T23:23:07.716Z,52.43
2023-11-30T23:25:35.762Z,52.26
2023-11-30T23:28:05.989Z,52.28
2023-11-30T23:30:34.102Z,52.13
2023-11-30T23:33:02.412Z,52.35
2023-11-30T23:35:30.489Z,52.41
2023-11-30T23:37:58.519Z,52.37
2023-11-30T23:40:26.501Z,52.41
2023-11-30T23:42:54.762Z,52.48
2023-11-30T23:45:24.197Z,52.43
2023-11-30T23:47:52.246Z,52.51
2023-11-30T23:50:20.346Z,52.36
2023-11-30T23:52:48.509Z,52.55
2023-11-30T23:55:16.831Z,52.46
2023-11-30T23:57:46.215Z,52.54
